sensor_id;sensor_type;location;lat;lon;timestamp;pressure;altitude;pressure_sealevel;temperature;humidity
67109;BME280;54027;50.786;7.058;2023-02-20T00:00:08;102254.06;;;5.88;93.49
67109;BME280;54027;50.786;7.058;2023-02-20T00:02:34;102260.75;;;5.83;93.71
67109;BME280;54027;50.786;7.058;2023-02-20T00:05:00;102261.28;;;5.74;93.60
67109;BME280;54027;50.786;7.058;2023-02-20T00:07:25;102266.91;;;5.64;93.86
67109;BME280;54027;50.786;7.058;2023-02-20T00:09:50;102257.09;;;5.53;93.72
67109;BME280;54027;50.786;7.058;2023-02-20T00:12:15;102260.19;;;5.44;93.79
67109;BME280;54027;50.786;7.058;2023-02-20T00:14:41;102253.06;;;5.36;93.68
67109;BME280;54027;50.786;7.058;2023-02-20T00:17:06;102245.94;;;5.29;93.39
67109;BME280;54027;50.786;7.058;2023-02-20T00:19:31;102247.53;;;5.25;93.83
67109;BME280;54027;50.786;7.058;2023-02-20T00:21:56;102245.59;;;5.19;94.55
67109;BME280;54027;50.786;7.058;2023-02-20T00:24:22;102244.69;;;5.17;94.01
67109;BME280;54027;50.786;7.058;2023-02-20T00:26:47;102243.00;;;5.18;94.55
67109;BME280;54027;50.786;7.058;2023-02-20T00:29:14;102230.41;;;5.24;94.82
67109;BME280;54027;50.786;7.058;2023-02-20T00:31:39;102228.63;;;5.21;95.42
67109;BME280;54027;50.786;7.058;2023-02-20T00:34:04;102236.19;;;5.18;95.55
67109;BME280;54027;50.786;7.058;2023-02-20T00:36:30;102224.22;;;5.19;95.51
67109;BME280;54027;50.786;7.058;2023-02-20T00:38:55;102222.63;;;5.21;95.72
67109;BME280;54027;50.786;7.058;2023-02-20T00:41:20;102227.75;;;5.21;95.34
67109;BME280;54027;50.786;7.058;2023-02-20T00:43:45;102225.19;;;5.21;95.96
67109;BME280;54027;50.786;7.058;2023-02-20T00:46:11;102212.28;;;5.19;95.71
67109;BME280;54027;50.786;7.058;2023-02-20T00:48:37;102213.06;;;5.17;96.28
67109;BME280;54027;50.786;7.058;2023-02-20T00:51:02;102211.38;;;5.17;96.42
67109;BME280;54027;50.786;7.058;2023-02-20T00:53:27;102205.25;;;5.14;96.16
67109;BME280;54027;50.786;7.058;2023-02-20T00:55:52;102219.63;;;5.10;95.89
67109;BME280;54027;50.786;7.058;2023-02-20T00:58:18;102217.81;;;5.06;95.98
67109;BME280;54027;50.786;7.058;2023-02-20T01:00:43;102216.13;;;5.07;95.94
67109;BME280;54027;50.786;7.058;2023-02-20T01:03:08;102221.16;;;5.05;96.28
67109;BME280;54027;50.786;7.058;2023-02-20T01:05:33;102210.91;;;5.05;96.54
67109;BME280;54027;50.786;7.058;2023-02-20T01:07:59;102204.09;;;5.06;96.08
67109;BME280;54027;50.786;7.058;2023-02-20T01:10:24;102195.53;;;5.05;96.67
67109;BME280;54027;50.786;7.058;2023-02-20T01:12:50;102201.59;;;5.07;96.53
67109;BME280;54027;50.786;7.058;2023-02-20T01:15:15;102199.13;;;5.10;96.30
67109;BME280;54027;50.786;7.058;2023-02-20T01:17:41;102207.78;;;5.12;96.62
67109;BME280;54027;50.786;7.058;2023-02-20T01:20:06;102206.19;;;5.16;96.87
67109;BME280;54027;50.786;7.058;2023-02-20T01:22:32;102195.19;;;5.18;96.18
67109;BME280;54027;50.786;7.058;2023-02-20T01:24:57;102199.59;;;5.22;96.73
67109;BME280;54027;50.786;7.058;2023-02-20T01:27:23;102195.44;;;5.26;96.57
67109;BME280;54027;50.786;7.058;2023-02-20T01:29:48;102183.72;;;5.33;95.86
67109;BME280;54027;50.786;7.058;2023-02-20T01:32:13;102178.63;;;5.34;96.01
67109;BME280;54027;50.786;7.058;2023-02-20T01:34:39;102178.75;;;5.37;95.80
67109;BME280;54027;50.786;7.058;2023-02-20T01:37:04;102185.72;;;5.41;95.92
67109;BME280;54027;50.786;7.058;2023-02-20T01:39:29;102178.16;;;5.44;95.47
67109;BME280;54027;50.786;7.058;2023-02-20T01:42:02;102180.81;;;5.47;95.17
67109;BME280;54027;50.786;7.058;2023-02-20T01:44:32;102174.03;;;5.49;94.00
67109;BME280;54027;50.786;7.058;2023-02-20T01:47:05;102173.25;;;5.50;94.06
67109;BME280;54027;50.786;7.058;2023-02-20T01:49:33;102174.16;;;5.52;93.59
67109;BME280;54027;50.786;7.058;2023-02-20T01:52:09;102170.72;;;5.52;92.68
67109;BME280;54027;50.786;7.058;2023-02-20T01:54:37;102167.34;;;5.53;92.80
67109;BME280;54027;50.786;7.058;2023-02-20T01:57:04;102157.94;;;5.53;92.38
67109;BME280;54027;50.786;7.058;2023-02-20T01:59:33;102169.97;;;5.54;92.43
67109;BME280;54027;50.786;7.058;2023-02-20T02:02:01;102164.00;;;5.55;92.15
67109;BME280;54027;50.786;7.058;2023-02-20T02:04:26;102152.94;;;5.56;91.21
67109;BME280;54027;50.786;7.058;2023-02-20T02:06:52;102151.25;;;5.57;91.21
67109;BME280;54027;50.786;7.058;2023-02-20T02:09:20;102136.78;;;5.59;91.33
67109;BME280;54027;50.786;7.058;2023-02-20T02:11:48;102134.19;;;5.59;91.09
67109;BME280;54027;50.786;7.058;2023-02-20T02:14:13;102134.28;;;5.60;91.00
67109;BME280;54027;50.786;7.058;2023-02-20T02:37:49;102119.19;;;5.44;90.09
67109;BME280;54027;50.786;7.058;2023-02-20T02:45:19;102119.25;;;5.22;90.78
67109;BME280;54027;50.786;7.058;2023-02-20T02:47:54;102123.31;;;5.15;90.82
67109;BME280;54027;50.786;7.058;2023-02-20T02:50:22;102111.97;;;5.09;91.25
67109;BME280;54027;50.786;7.058;2023-02-20T02:52:49;102108.41;;;5.05;90.70
67109;BME280;54027;50.786;7.058;2023-02-20T02:55:20;102115.19;;;5.03;91.28
67109;BME280;54027;50.786;7.058;2023-02-20T02:57:46;102105.72;;;5.01;91.97
67109;BME280;54027;50.786;7.058;2023-02-20T03:02:40;102095.28;;;4.96;91.68
67109;BME280;54027;50.786;7.058;2023-02-20T03:05:06;102093.50;;;4.94;91.02
67109;BME280;54027;50.786;7.058;2023-02-20T03:07:34;102086.50;;;4.90;91.87
67109;BME280;54027;50.786;7.058;2023-02-20T03:10:08;102090.72;;;4.88;91.40
67109;BME280;54027;50.786;7.058;2023-02-20T03:12:38;102082.91;;;4.85;91.51
67109;BME280;54027;50.786;7.058;2023-02-20T03:15:06;102076.00;;;4.82;91.95
67109;BME280;54027;50.786;7.058;2023-02-20T03:17:55;102078.44;;;4.79;92.42
67109;BME280;54027;50.786;7.058;2023-02-20T03:20:23;102072.44;;;4.79;91.91
67109;BME280;54027;50.786;7.058;2023-02-20T03:22:53;102067.28;;;4.77;92.71
67109;BME280;54027;50.786;7.058;2023-02-20T03:25:25;102054.41;;;4.76;91.99
67109;BME280;54027;50.786;7.058;2023-02-20T03:30:21;102058.53;;;4.72;92.56
67109;BME280;54027;50.786;7.058;2023-02-20T03:32:49;102055.94;;;4.71;93.19
67109;BME280;54027;50.786;7.058;2023-02-20T03:35:34;102052.66;;;4.75;93.04
67109;BME280;54027;50.786;7.058;2023-02-20T03:38:20;102062.78;;;4.72;93.53
67109;BME280;54027;50.786;7.058;2023-02-20T03:41:06;102064.44;;;4.70;93.03
67109;BME280;54027;50.786;7.058;2023-02-20T03:43:51;102063.50;;;4.68;93.35
67109;BME280;54027;50.786;7.058;2023-02-20T03:46:19;102065.19;;;4.67;93.90
67109;BME280;54027;50.786;7.058;2023-02-20T03:48:54;102061.72;;;4.65;93.14
67109;BME280;54027;50.786;7.058;2023-02-20T03:51:22;102050.50;;;4.61;93.76
67109;BME280;54027;50.786;7.058;2023-02-20T03:54:07;102064.94;;;4.59;93.95
67109;BME280;54027;50.786;7.058;2023-02-20T03:56:43;102059.03;;;4.62;93.33
67109;BME280;54027;50.786;7.058;2023-02-20T03:59:17;102051.41;;;4.63;94.19
67109;BME280;54027;50.786;7.058;2023-02-20T04:01:44;102050.53;;;4.63;93.92
67109;BME280;54027;50.786;7.058;2023-02-20T04:04:15;102053.81;;;4.59;93.25
67109;BME280;54027;50.786;7.058;2023-02-20T04:06:42;102056.41;;;4.60;93.51
67109;BME280;54027;50.786;7.058;2023-02-20T04:09:11;102060.66;;;4.60;94.10
67109;BME280;54027;50.786;7.058;2023-02-20T04:11:39;102052.94;;;4.58;93.95
67109;BME280;54027;50.786;7.058;2023-02-20T04:14:07;102063.22;;;4.60;93.54
67109;BME280;54027;50.786;7.058;2023-02-20T04:16:33;102062.88;;;4.51;93.99
67109;BME280;54027;50.786;7.058;2023-02-20T04:19:00;102063.59;;;4.47;93.43
67109;BME280;54027;50.786;7.058;2023-02-20T04:21:32;102053.13;;;4.41;94.28
67109;BME280;54027;50.786;7.058;2023-02-20T04:24:04;102053.78;;;4.35;93.48
67109;BME280;54027;50.786;7.058;2023-02-20T04:26:30;102051.88;;;4.30;93.49
67109;BME280;54027;50.786;7.058;2023-02-20T04:28:55;102039.88;;;4.29;94.63
67109;BME280;54027;50.786;7.058;2023-02-20T04:31:21;102040.88;;;4.32;95.15
67109;BME280;54027;50.786;7.058;2023-02-20T04:33:46;102041.78;;;4.34;94.23
67109;BME280;54027;50.786;7.058;2023-02-20T04:36:11;102040.91;;;4.34;94.44
67109;BME280;54027;50.786;7.058;2023-02-20T04:38:37;102036.63;;;4.33;94.37
67109;BME280;54027;50.786;7.058;2023-02-20T04:41:02;102040.81;;;4.31;94.34
67109;BME280;54027;50.786;7.058;2023-02-20T04:43:27;102044.13;;;4.28;94.52
67109;BME280;54027;50.786;7.058;2023-02-20T04:45:52;102043.09;;;4.23;94.31
67109;BME280;54027;50.786;7.058;2023-02-20T04:48:18;102040.31;;;4.17;94.36
67109;BME280;54027;50.786;7.058;2023-02-20T04:50:43;102036.75;;;4.14;94.09
67109;BME280;54027;50.786;7.058;2023-02-20T04:53:08;102038.31;;;4.10;94.98
67109;BME280;54027;50.786;7.058;2023-02-20T04:55:34;102036.50;;;4.07;94.32
67109;BME280;54027;50.786;7.058;2023-02-20T04:57:59;102041.59;;;4.06;95.12
67109;BME280;54027;50.786;7.058;2023-02-20T05:00:25;102037.19;;;4.03;95.49
67109;BME280;54027;50.786;7.058;2023-02-20T05:02:50;102029.47;;;4.02;95.05
67109;BME280;54027;50.786;7.058;2023-02-20T05:07:41;102036.03;;;3.95;95.55
67109;BME280;54027;50.786;7.058;2023-02-20T05:10:06;102035.94;;;3.92;94.95
67109;BME280;54027;50.786;7.058;2023-02-20T05:12:32;102031.69;;;3.93;94.97
67109;BME280;54027;50.786;7.058;2023-02-20T05:14:57;102033.25;;;3.89;95.06
67109;BME280;54027;50.786;7.058;2023-02-20T05:17:22;102034.13;;;3.90;95.45
67109;BME280;54027;50.786;7.058;2023-02-20T05:19:47;102031.56;;;3.90;96.03
67109;BME280;54027;50.786;7.058;2023-02-20T05:22:13;102024.81;;;3.92;95.55
67109;BME280;54027;50.786;7.058;2023-02-20T05:24:48;102023.94;;;3.91;96.66
67109;BME280;54027;50.786;7.058;2023-02-20T05:27:13;102024.88;;;3.93;95.76
67109;BME280;54027;50.786;7.058;2023-02-20T05:29:58;102018.94;;;3.94;95.99
67109;BME280;54027;50.786;7.058;2023-02-20T05:32:24;102017.34;;;3.96;96.79
67109;BME280;54027;50.786;7.058;2023-02-20T05:34:50;102011.50;;;4.00;96.25
67109;BME280;54027;50.786;7.058;2023-02-20T05:37:16;102015.94;;;4.04;96.53
67109;BME280;54027;50.786;7.058;2023-02-20T05:39:41;102006.69;;;4.08;97.42
67109;BME280;54027;50.786;7.058;2023-02-20T05:42:07;102003.47;;;4.14;97.35
67109;BME280;54027;50.786;7.058;2023-02-20T05:44:33;101997.72;;;4.19;97.49
67109;BME280;54027;50.786;7.058;2023-02-20T05:46:58;101992.78;;;4.24;97.96
67109;BME280;54027;50.786;7.058;2023-02-20T05:49:23;101999.63;;;4.25;97.31
67109;BME280;54027;50.786;7.058;2023-02-20T05:51:49;101993.63;;;4.24;97.64
67109;BME280;54027;50.786;7.058;2023-02-20T05:54:15;101988.41;;;4.21;96.76
67109;BME280;54027;50.786;7.058;2023-02-20T05:56:41;102002.84;;;4.19;97.48
67109;BME280;54027;50.786;7.058;2023-02-20T05:59:06;101993.47;;;4.20;96.84
67109;BME280;54027;50.786;7.058;2023-02-20T06:01:31;101986.59;;;4.19;97.33
67109;BME280;54027;50.786;7.058;2023-02-20T06:03:57;101984.81;;;4.16;97.53
67109;BME280;54027;50.786;7.058;2023-02-20T06:06:22;101986.56;;;4.17;96.70
67109;BME280;54027;50.786;7.058;2023-02-20T06:08:48;101994.28;;;4.19;96.81
67109;BME280;54027;50.786;7.058;2023-02-20T06:11:13;101991.03;;;4.23;96.71
67109;BME280;54027;50.786;7.058;2023-02-20T06:13:39;101990.28;;;4.25;96.64
67109;BME280;54027;50.786;7.058;2023-02-20T06:16:05;101983.47;;;4.26;97.23
67109;BME280;54027;50.786;7.058;2023-02-20T06:18:31;101992.06;;;4.28;96.08
67109;BME280;54027;50.786;7.058;2023-02-20T06:20:56;101987.06;;;4.31;96.75
67109;BME280;54027;50.786;7.058;2023-02-20T06:23:21;101984.50;;;4.31;96.51
67109;BME280;54027;50.786;7.058;2023-02-20T06:25:47;101985.34;;;4.30;96.47
67109;BME280;54027;50.786;7.058;2023-02-20T06:28:12;101978.38;;;4.27;96.07
67109;BME280;54027;50.786;7.058;2023-02-20T06:30:37;101986.03;;;4.26;95.60
67109;BME280;54027;50.786;7.058;2023-02-20T06:33:02;101974.91;;;4.25;96.31
67109;BME280;54027;50.786;7.058;2023-02-20T06:35:28;101985.13;;;4.24;95.95
67109;BME280;54027;50.786;7.058;2023-02-20T06:37:53;101981.03;;;4.29;95.84
67109;BME280;54027;50.786;7.058;2023-02-20T06:40:18;101983.50;;;4.27;95.82
67109;BME280;54027;50.786;7.058;2023-02-20T06:42:44;101980.25;;;4.31;96.09
67109;BME280;54027;50.786;7.058;2023-02-20T06:45:09;101981.25;;;4.35;95.40
67109;BME280;54027;50.786;7.058;2023-02-20T06:47:35;101979.56;;;4.35;95.88
67109;BME280;54027;50.786;7.058;2023-02-20T06:50:00;101980.59;;;4.40;96.13
67109;BME280;54027;50.786;7.058;2023-02-20T06:52:25;101980.81;;;4.46;95.63
67109;BME280;54027;50.786;7.058;2023-02-20T06:54:51;101978.47;;;4.52;95.34
67109;BME280;54027;50.786;7.058;2023-02-20T06:57:18;101977.81;;;4.58;96.07
67109;BME280;54027;50.786;7.058;2023-02-20T06:59:44;101972.09;;;4.65;95.32
67109;BME280;54027;50.786;7.058;2023-02-20T07:02:11;101974.91;;;4.73;95.86
67109;BME280;54027;50.786;7.058;2023-02-20T07:04:36;101964.88;;;4.79;95.26
67109;BME280;54027;50.786;7.058;2023-02-20T07:07:02;101964.28;;;4.86;94.76
67109;BME280;54027;50.786;7.058;2023-02-20T07:09:27;101963.50;;;4.88;95.38
67109;BME280;54027;50.786;7.058;2023-02-20T07:11:53;101970.50;;;4.94;94.72
67109;BME280;54027;50.786;7.058;2023-02-20T07:14:18;101964.59;;;4.95;94.93
67109;BME280;54027;50.786;7.058;2023-02-20T07:16:44;101969.91;;;5.01;94.00
67109;BME280;54027;50.786;7.058;2023-02-20T07:19:09;101970.91;;;5.06;93.93
67109;BME280;54027;50.786;7.058;2023-02-20T07:21:35;101972.88;;;5.13;94.37
67109;BME280;54027;50.786;7.058;2023-02-20T07:24:00;101977.34;;;5.20;93.56
67109;BME280;54027;50.786;7.058;2023-02-20T07:26:26;101982.84;;;5.31;93.22
67109;BME280;54027;50.786;7.058;2023-02-20T07:28:52;101981.34;;;5.37;93.00
67109;BME280;54027;50.786;7.058;2023-02-20T07:31:17;101975.59;;;5.44;92.15
67109;BME280;54027;50.786;7.058;2023-02-20T07:33:43;101978.34;;;5.50;91.73
67109;BME280;54027;50.786;7.058;2023-02-20T07:36:12;101981.91;;;5.55;91.60
67109;BME280;54027;50.786;7.058;2023-02-20T07:38:37;101978.66;;;5.61;91.38
67109;BME280;54027;50.786;7.058;2023-02-20T07:41:03;101986.56;;;5.67;90.86
67109;BME280;54027;50.786;7.058;2023-02-20T07:43:28;101986.75;;;5.73;90.70
67109;BME280;54027;50.786;7.058;2023-02-20T07:45:54;101994.69;;;5.81;90.13
67109;BME280;54027;50.786;7.058;2023-02-20T07:48:19;101999.22;;;5.89;90.07
67109;BME280;54027;50.786;7.058;2023-02-20T07:50:44;101987.53;;;5.99;89.29
67109;BME280;54027;50.786;7.058;2023-02-20T07:53:13;101989.53;;;6.09;88.90
67109;BME280;54027;50.786;7.058;2023-02-20T07:55:38;101995.88;;;6.20;87.33
67109;BME280;54027;50.786;7.058;2023-02-20T07:58:03;101997.13;;;6.34;87.53
67109;BME280;54027;50.786;7.058;2023-02-20T08:00:29;102001.81;;;6.49;87.00
67109;BME280;54027;50.786;7.058;2023-02-20T08:02:54;102003.97;;;6.65;86.29
67109;BME280;54027;50.786;7.058;2023-02-20T08:05:19;102003.47;;;6.78;85.51
67109;BME280;54027;50.786;7.058;2023-02-20T08:07:45;101997.00;;;6.92;85.01
67109;BME280;54027;50.786;7.058;2023-02-20T08:10:10;101999.06;;;7.05;84.09
67109;BME280;54027;50.786;7.058;2023-02-20T08:12:36;101997.59;;;7.15;83.56
67109;BME280;54027;50.786;7.058;2023-02-20T08:15:01;101997.78;;;7.21;83.22
67109;BME280;54027;50.786;7.058;2023-02-20T08:17:27;101998.06;;;7.33;83.50
67109;BME280;54027;50.786;7.058;2023-02-20T08:19:52;101991.50;;;7.44;82.71
67109;BME280;54027;50.786;7.058;2023-02-20T08:22:17;101993.34;;;7.51;81.51
67109;BME280;54027;50.786;7.058;2023-02-20T08:24:43;101992.75;;;7.61;81.16
67109;BME280;54027;50.786;7.058;2023-02-20T08:27:08;101998.91;;;7.68;80.36
67109;BME280;54027;50.786;7.058;2023-02-20T08:29:33;101993.91;;;7.74;80.36
67109;BME280;54027;50.786;7.058;2023-02-20T08:31:58;101994.06;;;7.80;80.02
67109;BME280;54027;50.786;7.058;2023-02-20T08:34:24;102000.16;;;7.85;79.45
67109;BME280;54027;50.786;7.058;2023-02-20T08:36:49;102000.19;;;7.86;79.06
67109;BME280;54027;50.786;7.058;2023-02-20T08:39:14;102000.25;;;7.89;79.31
67109;BME280;54027;50.786;7.058;2023-02-20T08:41:40;101997.59;;;7.85;78.64
67109;BME280;54027;50.786;7.058;2023-02-20T08:44:06;102011.28;;;7.84;79.29
67109;BME280;54027;50.786;7.058;2023-02-20T08:46:32;102006.13;;;7.82;79.00
67109;BME280;54027;50.786;7.058;2023-02-20T08:48:57;102008.72;;;7.84;78.89
67109;BME280;54027;50.786;7.058;2023-02-20T08:51:22;102006.22;;;7.87;78.15
67109;BME280;54027;50.786;7.058;2023-02-20T08:53:47;101999.47;;;7.92;77.68
67109;BME280;54027;50.786;7.058;2023-02-20T08:56:16;101997.75;;;7.92;77.31
67109;BME280;54027;50.786;7.058;2023-02-20T08:58:41;101999.56;;;7.96;77.69
67109;BME280;54027;50.786;7.058;2023-02-20T09:01:06;102012.47;;;7.98;77.91
67109;BME280;54027;50.786;7.058;2023-02-20T09:03:32;102009.09;;;8.00;78.06
67109;BME280;54027;50.786;7.058;2023-02-20T09:05:58;102010.81;;;8.00;78.43
67109;BME280;54027;50.786;7.058;2023-02-20T09:08:23;102015.00;;;7.96;78.35
67109;BME280;54027;50.786;7.058;2023-02-20T09:10:49;102030.38;;;7.93;78.60
67109;BME280;54027;50.786;7.058;2023-02-20T09:13:14;102023.53;;;7.94;78.15
67109;BME280;54027;50.786;7.058;2023-02-20T09:15:39;102027.00;;;7.96;78.13
67109;BME280;54027;50.786;7.058;2023-02-20T09:18:05;102027.13;;;8.00;78.50
67109;BME280;54027;50.786;7.058;2023-02-20T09:20:33;102035.75;;;8.02;78.25
67109;BME280;54027;50.786;7.058;2023-02-20T09:22:58;102034.91;;;8.04;77.75
67109;BME280;54027;50.786;7.058;2023-02-20T09:25:24;102024.69;;;8.07;77.11
67109;BME280;54027;50.786;7.058;2023-02-20T09:27:50;102025.66;;;8.13;77.43
67109;BME280;54027;50.786;7.058;2023-02-20T09:30:16;102037.91;;;8.23;77.69
67109;BME280;54027;50.786;7.058;2023-02-20T09:32:43;102019.00;;;8.23;76.43
67109;BME280;54027;50.786;7.058;2023-02-20T09:35:13;102024.22;;;8.24;76.99
67109;BME280;54027;50.786;7.058;2023-02-20T09:37:39;102027.47;;;8.17;76.37
67109;BME280;54027;50.786;7.058;2023-02-20T09:40:05;102025.72;;;8.15;76.49
67109;BME280;54027;50.786;7.058;2023-02-20T09:42:33;102026.44;;;8.09;77.09
67109;BME280;54027;50.786;7.058;2023-02-20T09:45:11;102030.03;;;8.16;77.54
67109;BME280;54027;50.786;7.058;2023-02-20T09:47:50;102019.13;;;8.29;77.09
67109;BME280;54027;50.786;7.058;2023-02-20T09:53:05;102016.13;;;8.48;76.36
67109;BME280;54027;50.786;7.058;2023-02-20T09:55:33;102003.41;;;8.57;76.36
67109;BME280;54027;50.786;7.058;2023-02-20T09:57:59;102002.56;;;8.58;76.32
67109;BME280;54027;50.786;7.058;2023-02-20T10:00:32;101997.47;;;8.61;75.29
67109;BME280;54027;50.786;7.058;2023-02-20T10:03:18;101989.88;;;8.69;75.48
67109;BME280;54027;50.786;7.058;2023-02-20T10:05:45;101983.94;;;8.73;75.05
67109;BME280;54027;50.786;7.058;2023-02-20T10:08:10;101992.66;;;8.79;75.46
67109;BME280;54027;50.786;7.058;2023-02-20T10:10:39;101981.56;;;8.83;76.04
67109;BME280;54027;50.786;7.058;2023-02-20T10:23:13;101958.00;;;9.13;74.41
67109;BME280;54027;50.786;7.058;2023-02-20T10:25:53;101952.97;;;9.19;74.57
67109;BME280;54027;50.786;7.058;2023-02-20T10:28:19;101966.84;;;9.27;75.51
67109;BME280;54027;50.786;7.058;2023-02-20T10:38:33;101945.88;;;9.61;73.58
67109;BME280;54027;50.786;7.058;2023-02-20T10:46:12;101936.88;;;9.94;72.10
67109;BME280;54027;50.786;7.058;2023-02-20T10:48:40;101928.38;;;10.02;71.83
67109;BME280;54027;50.786;7.058;2023-02-20T10:56:08;101930.34;;;10.23;71.26
67109;BME280;54027;50.786;7.058;2023-02-20T11:01:04;101920.13;;;10.34;71.30
67109;BME280;54027;50.786;7.058;2023-02-20T11:05:56;101911.69;;;10.50;70.63
67109;BME280;54027;50.786;7.058;2023-02-20T11:08:25;101901.44;;;10.59;69.52
67109;BME280;54027;50.786;7.058;2023-02-20T11:10:52;101886.84;;;10.64;69.26
67109;BME280;54027;50.786;7.058;2023-02-20T11:13:19;101881.69;;;10.68;69.32
67109;BME280;54027;50.786;7.058;2023-02-20T11:15:47;101867.91;;;10.68;69.11
67109;BME280;54027;50.786;7.058;2023-02-20T11:18:16;101870.59;;;10.77;68.47
67109;BME280;54027;50.786;7.058;2023-02-20T11:20:44;101876.72;;;10.91;68.77
67109;BME280;54027;50.786;7.058;2023-02-20T11:23:31;101870.72;;;10.98;68.24
67109;BME280;54027;50.786;7.058;2023-02-20T11:25:55;101862.16;;;11.04;67.99
67109;BME280;54027;50.786;7.058;2023-02-20T11:28:22;101857.06;;;11.14;67.65
67109;BME280;54027;50.786;7.058;2023-02-20T11:30:49;101838.97;;;11.17;66.77
67109;BME280;54027;50.786;7.058;2023-02-20T11:33:22;101835.53;;;11.20;67.29
67109;BME280;54027;50.786;7.058;2023-02-20T11:35:49;101828.69;;;11.29;67.31
67109;BME280;54027;50.786;7.058;2023-02-20T11:40:41;101825.28;;;11.37;66.93
67109;BME280;54027;50.786;7.058;2023-02-20T11:45:37;101822.69;;;11.43;67.40
67109;BME280;54027;50.786;7.058;2023-02-20T11:50:41;101811.59;;;11.59;67.37
67109;BME280;54027;50.786;7.058;2023-02-20T11:53:10;101790.03;;;11.60;66.07
67109;BME280;54027;50.786;7.058;2023-02-20T11:55:41;101783.16;;;11.63;66.58
67109;BME280;54027;50.786;7.058;2023-02-20T11:58:06;101790.06;;;11.66;67.05
67109;BME280;54027;50.786;7.058;2023-02-20T12:00:45;101794.41;;;11.76;67.22
67109;BME280;54027;50.786;7.058;2023-02-20T12:03:17;101785.75;;;11.78;66.96
67109;BME280;54027;50.786;7.058;2023-02-20T12:05:45;101777.13;;;11.79;66.78
67109;BME280;54027;50.786;7.058;2023-02-20T12:10:59;101767.66;;;11.90;66.32
67109;BME280;54027;50.786;7.058;2023-02-20T12:13:26;101757.31;;;11.95;66.11
67109;BME280;54027;50.786;7.058;2023-02-20T12:18:39;101738.31;;;12.05;66.25
67109;BME280;54027;50.786;7.058;2023-02-20T12:23:34;101739.19;;;12.15;66.32
67109;BME280;54027;50.786;7.058;2023-02-20T12:36:37;101761.69;;;12.34;67.16
67109;BME280;54027;50.786;7.058;2023-02-20T12:54:36;101709.81;;;12.54;66.15
67109;BME280;54027;50.786;7.058;2023-02-20T12:57:15;101717.56;;;12.63;66.26
67109;BME280;54027;50.786;7.058;2023-02-20T13:02:13;101687.34;;;12.54;65.86
67109;BME280;54027;50.786;7.058;2023-02-20T13:04:41;101693.38;;;12.53;66.11
67109;BME280;54027;50.786;7.058;2023-02-20T13:07:13;101700.31;;;12.54;66.44
67109;BME280;54027;50.786;7.058;2023-02-20T13:09:41;101694.25;;;12.54;65.95
67109;BME280;54027;50.786;7.058;2023-02-20T13:12:10;101698.56;;;12.61;65.87
67109;BME280;54027;50.786;7.058;2023-02-20T13:14:58;101682.97;;;12.68;65.97
67109;BME280;54027;50.786;7.058;2023-02-20T13:17:28;101678.59;;;12.85;65.53
67109;BME280;54027;50.786;7.058;2023-02-20T13:22:29;101674.22;;;13.18;64.57
67109;BME280;54027;50.786;7.058;2023-02-20T13:24:58;101669.84;;;13.18;64.08
67109;BME280;54027;50.786;7.058;2023-02-20T13:27:39;101649.91;;;13.28;64.05
67109;BME280;54027;50.786;7.058;2023-02-20T13:30:19;101632.53;;;13.39;63.68
67109;BME280;54027;50.786;7.058;2023-02-20T13:32:45;101641.19;;;13.39;63.37
67109;BME280;54027;50.786;7.058;2023-02-20T13:37:54;101647.19;;;13.44;63.29
67109;BME280;54027;50.786;7.058;2023-02-20T13:45:39;101597.41;;;14.03;61.78
67109;BME280;54027;50.786;7.058;2023-02-20T13:50:42;101626.22;;;13.76;62.70
67109;BME280;54027;50.786;7.058;2023-02-20T13:53:07;101639.38;;;13.47;63.33
67109;BME280;54027;50.786;7.058;2023-02-20T13:55:33;101649.00;;;13.35;64.12
67109;BME280;54027;50.786;7.058;2023-02-20T13:58:14;101643.88;;;13.21;64.78
67109;BME280;54027;50.786;7.058;2023-02-20T14:00:43;101655.19;;;13.11;65.11
67109;BME280;54027;50.786;7.058;2023-02-20T14:03:11;101652.59;;;13.08;65.56
67109;BME280;54027;50.786;7.058;2023-02-20T14:05:36;101663.91;;;12.99;65.39
67109;BME280;54027;50.786;7.058;2023-02-20T14:08:02;101663.00;;;12.94;66.02
67109;BME280;54027;50.786;7.058;2023-02-20T14:10:29;101664.78;;;12.88;66.38
67109;BME280;54027;50.786;7.058;2023-02-20T14:15:22;101651.84;;;12.74;66.84
67109;BME280;54027;50.786;7.058;2023-02-20T14:17:48;101659.63;;;12.73;67.32
67109;BME280;54027;50.786;7.058;2023-02-20T14:20:18;101651.84;;;12.74;67.07
67109;BME280;54027;50.786;7.058;2023-02-20T14:22:44;101646.66;;;12.79;66.91
67109;BME280;54027;50.786;7.058;2023-02-20T14:25:22;101642.31;;;12.73;67.30
67109;BME280;54027;50.786;7.058;2023-02-20T14:27:48;101633.69;;;12.76;67.23
67109;BME280;54027;50.786;7.058;2023-02-20T14:30:21;101630.19;;;12.81;67.61
67109;BME280;54027;50.786;7.058;2023-02-20T14:32:48;101624.13;;;12.84;67.79
67109;BME280;54027;50.786;7.058;2023-02-20T14:40:43;101603.38;;;12.82;67.74
67109;BME280;54027;50.786;7.058;2023-02-20T14:43:18;101610.31;;;12.85;68.07
67109;BME280;54027;50.786;7.058;2023-02-20T14:45:45;101586.94;;;12.80;67.46
67109;BME280;54027;50.786;7.058;2023-02-20T14:48:24;101585.22;;;12.79;67.82
67109;BME280;54027;50.786;7.058;2023-02-20T14:54:02;101601.69;;;12.72;68.41
67109;BME280;54027;50.786;7.058;2023-02-20T14:56:27;101602.59;;;12.67;68.28
67109;BME280;54027;50.786;7.058;2023-02-20T14:58:53;101608.59;;;12.67;68.80
67109;BME280;54027;50.786;7.058;2023-02-20T15:01:35;101599.13;;;12.63;68.91
67109;BME280;54027;50.786;7.058;2023-02-20T15:04:09;101600.88;;;12.60;69.16
67109;BME280;54027;50.786;7.058;2023-02-20T15:06:35;101603.47;;;12.58;69.41
67109;BME280;54027;50.786;7.058;2023-02-20T15:09:01;101604.31;;;12.56;69.31
67109;BME280;54027;50.786;7.058;2023-02-20T15:11:27;101610.41;;;12.50;69.69
67109;BME280;54027;50.786;7.058;2023-02-20T15:13:52;101597.44;;;12.47;69.47
67109;BME280;54027;50.786;7.058;2023-02-20T15:16:22;101601.75;;;12.43;70.32